createdAt,value
2018-02-19T00:00:38.328Z,1017.25
2018-02-19T00:01:38.354Z,1017.34
2018-02-19T00:02:38.331Z,1017.28
2018-02-19T00:03:38.358Z,1017.25
2018-02-19T00:04:38.337Z,1017.27
2018-02-19T00:05:38.373Z,1017.29
2018-02-19T00:06:38.331Z,1017.30
2018-02-19T00:07:39.420Z,1017.22
2018-02-19T00:08:38.342Z,1017.21
2018-02-19T00:09:38.400Z,1017.23
2018-02-19T00:10:38.341Z,1017.23
2018-02-19T00:11:38.420Z,1017.19
2018-02-19T00:12:38.347Z,1017.19
2018-02-19T00:13:38.426Z,1017.22
2018-02-19T00:14:38.375Z,1017.18
2018-02-19T00:15:38.436Z,1017.16
2018-02-19T00:16:38.351Z,1017.18
2018-02-19T00:17:38.453Z,1017.16
2018-02-19T00:18:38.362Z,1017.14
2018-02-19T00:19:38.474Z,1017.20
2018-02-19T00:20:38.357Z,1017.20
2018-02-19T00:21:38.384Z,1017.15
2018-02-19T00:22:38.368Z,1017.17
2018-02-19T00:23:38.400Z,1017.16
2018-02-19T00:24:38.369Z,1017.14
2018-02-19T00:25:39.436Z,1017.20
2018-02-19T00:26:38.367Z,1017.10
2018-02-19T00:27:38.422Z,1017.13
2018-02-19T00:28:38.365Z,1017.17
2018-02-19T00:29:38.435Z,1017.10
2018-02-19T00:30:38.376Z,1017.09
2018-02-19T00:31:38.448Z,1017.10
2018-02-19T00:32:38.387Z,1017.12
2018-02-19T00:33:38.465Z,1017.06
2018-02-19T00:34:38.382Z,1017.13
2018-02-19T00:35:38.474Z,1017.02
2018-02-19T00:36:38.384Z,1017.01
2018-02-19T00:37:38.488Z,1016.97
2018-02-19T00:38:38.382Z,1017.01
2018-02-19T00:39:38.402Z,1017.02
2018-02-19T00:40:38.398Z,1016.99
2018-02-19T00:41:38.413Z,1017.00
2018-02-19T00:42:38.390Z,1016.97
2018-02-19T00:43:38.427Z,1017.02
2018-02-19T00:44:38.386Z,1016.93
2018-02-19T00:45:38.440Z,1016.97
2018-02-19T00:46:38.388Z,1016.93
2018-02-19T00:47:38.453Z,1016.89
2018-02-19T00:48:38.393Z,1016.86
2018-02-19T00:49:38.477Z,1016.85
2018-02-19T00:50:38.402Z,1016.84
2018-02-19T00:51:38.481Z,1016.83
2018-02-19T00:52:38.397Z,1016.80
2018-02-19T00:53:38.424Z,1016.80
2018-02-19T00:54:38.399Z,1016.80
2018-02-19T00:55:38.429Z,1016.80
2018-02-19T00:56:38.411Z,1016.78
2018-02-19T00:57:38.450Z,1016.79
2018-02-19T00:58:38.406Z,1016.81
2018-02-19T00:59:38.466Z,1016.73
2018-02-19T01:00:38.418Z,1016.75
2018-02-19T01:01:38.479Z,1016.80
2018-02-19T01:02:38.409Z,1016.75
2018-02-19T01:03:38.490Z,1016.72
2018-02-19T01:04:38.418Z,1016.73
2018-02-19T01:05:38.511Z,1016.73
2018-02-19T01:06:38.416Z,1016.72
2018-02-19T01:07:38.527Z,1016.69
2018-02-19T01:08:38.417Z,1016.68
2018-02-19T01:09:38.429Z,1016.67
2018-02-19T01:10:38.422Z,1016.73
2018-02-19T01:11:38.442Z,1016.71
2018-02-19T01:12:38.434Z,1016.69
2018-02-19T01:13:38.432Z,1016.70
2018-02-19T01:14:38.425Z,1016.69
2018-02-19T01:15:38.432Z,1016.67
2018-02-19T01:16:38.431Z,1016.65
2018-02-19T01:17:38.436Z,1016.61
2018-02-19T01:18:38.429Z,1016.61
2018-02-19T01:19:38.440Z,1016.61
2018-02-19T01:20:38.444Z,1016.64
2018-02-19T01:21:38.441Z,1016.61
2018-02-19T01:22:38.435Z,1016.61
2018-02-19T01:23:38.442Z,1016.63
2018-02-19T01:24:38.446Z,1016.63
2018-02-19T01:25:38.445Z,1016.60
2018-02-19T01:26:38.446Z,1016.59
2018-02-19T01:27:38.451Z,1016.58
2018-02-19T01:28:38.441Z,1016.61
2018-02-19T01:29:38.447Z,1016.55
2018-02-19T01:30:38.449Z,1016.52
2018-02-19T01:31:38.458Z,1016.49
2018-02-19T01:32:38.449Z,1016.52
2018-02-19T01:33:38.449Z,1016.46
2018-02-19T01:34:38.484Z,1016.49
2018-02-19T01:35:38.460Z,1016.52
2018-02-19T01:36:38.466Z,1016.47
2018-02-19T01:37:38.474Z,1016.44
2018-02-19T01:38:38.458Z,1016.47
2018-02-19T01:39:38.468Z,1016.42
2018-02-19T01:40:38.460Z,1016.42
2018-02-19T01:41:38.463Z,1016.39
2018-02-19T01:42:38.458Z,1016.34
2018-02-19T01:43:38.467Z,1016.34
2018-02-19T01:44:38.464Z,1016.35
2018-02-19T01:45:38.469Z,1016.35
2018-02-19T01:46:38.462Z,1016.32
2018-02-19T01:47:38.470Z,1016.28
2018-02-19T01:48:38.467Z,1016.28
2018-02-19T01:49:38.474Z,1016.24
2018-02-19T01:50:38.471Z,1016.25
2018-02-19T01:51:38.469Z,1016.27
2018-02-19T01:52:38.471Z,1016.23
2018-02-19T01:53:38.476Z,1016.23
2018-02-19T01:54:38.487Z,1016.23
2018-02-19T01:55:38.472Z,1016.23
2018-02-19T01:56:38.501Z,1016.16
2018-02-19T01:57:38.477Z,1016.19
2018-02-19T01:58:38.493Z,1016.16
2018-02-19T01:59:38.478Z,1016.17
2018-02-19T02:00:38.483Z,1016.19
2018-02-19T02:01:38.481Z,1016.14
2018-02-19T02:02:38.505Z,1016.16
2018-02-19T02:03:38.484Z,1016.18
2018-02-19T02:04:38.490Z,1016.13
2018-02-19T02:05:38.496Z,1016.19
2018-02-19T02:06:38.490Z,1016.21
2018-02-19T02:07:38.491Z,1016.15
2018-02-19T02:08:39.503Z,1016.17
2018-02-19T02:09:38.495Z,1016.24
2018-02-19T02:10:38.490Z,1016.20
2018-02-19T02:11:38.492Z,1016.19
2018-02-19T02:12:38.522Z,1016.18
2018-02-19T02:13:38.497Z,1016.17
2018-02-19T02:14:38.507Z,1016.16
2018-02-19T02:15:38.496Z,1016.18
2018-02-19T02:16:38.503Z,1016.15
2018-02-19T02:17:38.515Z,1016.19
2018-02-19T02:18:38.511Z,1016.14
2018-02-19T02:19:38.502Z,1016.13
2018-02-19T02:20:38.517Z,1016.15
2018-02-19T02:21:38.504Z,1016.18
2018-02-19T02:22:40.511Z,1016.16
2018-02-19T02:23:38.512Z,1016.13
2018-02-19T02:24:38.507Z,1016.11
2018-02-19T02:25:38.508Z,1016.09
2018-02-19T02:26:39.525Z,1016.12
2018-02-19T02:27:38.515Z,1016.04
2018-02-19T02:28:38.521Z,1016.03
2018-02-19T02:29:38.514Z,1016.05
2018-02-19T02:30:38.523Z,1016.02
2018-02-19T02:31:38.514Z,1016.03
2018-02-19T02:32:38.522Z,1016.00
2018-02-19T02:33:38.511Z,1016.01
2018-02-19T02:34:38.540Z,1015.99
2018-02-19T02:35:38.924Z,1016.05
2018-02-19T02:36:38.534Z,1015.98
2018-02-19T02:37:38.523Z,1016.03
2018-02-19T02:38:38.523Z,1015.95
2018-02-19T02:39:38.522Z,1015.98
2018-02-19T02:40:38.527Z,1016.01
2018-02-19T02:41:38.536Z,1016.00
2018-02-19T02:42:38.528Z,1016.04
2018-02-19T02:43:38.521Z,1016.03
2018-02-19T02:44:39.537Z,1015.99
2018-02-19T02:45:38.535Z,1016.04
2018-02-19T02:46:38.531Z,1016.03
2018-02-19T02:47:38.528Z,1016.04
2018-02-19T02:48:38.533Z,1016.08
2018-02-19T02:49:38.529Z,1016.05
2018-02-19T02:50:38.536Z,1016.05
2018-02-19T02:51:38.532Z,1016.02
2018-02-19T02:52:38.553Z,1016.03
2018-02-19T02:53:38.539Z,1016.01
2018-02-19T02:54:38.547Z,1016.03
2018-02-19T02:55:38.538Z,1015.97
2018-02-19T02:56:38.544Z,1016.02
2018-02-19T02:57:38.537Z,1016.02
2018-02-19T02:58:38.552Z,1016.07
2018-02-19T02:59:38.549Z,1016.01
2018-02-19T03:00:38.540Z,1016.00
2018-02-19T03:01:38.544Z,1016.02
2018-02-19T03:02:38.547Z,1016.02
2018-02-19T03:03:38.548Z,1016.01
2018-02-19T03:04:38.554Z,1015.98
2018-02-19T03:05:38.557Z,1016.00
2018-02-19T03:06:38.569Z,1016.01
2018-02-19T03:07:38.561Z,1016.01
2018-02-19T03:08:38.552Z,1016.03
2018-02-19T03:09:38.573Z,1016.04
2018-02-19T03:10:38.553Z,1016.01
2018-02-19T03:11:38.571Z,1016.07
2018-02-19T03:12:38.567Z,1016.02
2018-02-19T03:13:38.952Z,1016.01
2018-02-19T03:14:38.575Z,1016.01
2018-02-19T03:15:38.557Z,1015.98
2018-02-19T03:16:38.564Z,1016.00
2018-02-19T03:17:38.564Z,1015.94
2018-02-19T03:18:38.557Z,1015.93
2018-02-19T03:19:38.558Z,1015.91
2018-02-19T03:20:38.561Z,1015.91
2018-02-19T03:21:38.563Z,1015.88
2018-02-19T03:22:38.574Z,1015.87
2018-02-19T03:23:38.569Z,1015.87
2018-02-19T03:24:38.590Z,1015.85
2018-02-19T03:25:38.577Z,1015.85
2018-02-19T03:26:38.577Z,1015.87
2018-02-19T03:27:38.569Z,1015.84
2018-02-19T03:28:38.600Z,1015.85
2018-02-19T03:29:38.577Z,1015.93
2018-02-19T03:30:38.572Z,1015.93
2018-02-19T03:31:38.580Z,1015.90
2018-02-19T03:32:38.578Z,1015.98
2018-02-19T03:33:38.568Z,1015.91
2018-02-19T03:34:38.584Z,1015.92
2018-02-19T03:35:38.579Z,1015.89
2018-02-19T03:36:38.576Z,1015.88
2018-02-19T03:37:38.573Z,1015.95
2018-02-19T03:38:38.579Z,1015.88
2018-02-19T03:39:38.576Z,1015.82
2018-02-19T03:40:38.592Z,1015.84
2018-02-19T03:41:38.594Z,1015.82
2018-02-19T03:42:38.586Z,1015.80
2018-02-19T03:43:38.588Z,1015.80
2018-02-19T03:44:38.596Z,1015.78
2018-02-19T03:45:38.584Z,1015.77
2018-02-19T03:46:38.592Z,1015.65
2018-02-19T03:47:38.584Z,1015.68
2018-02-19T03:48:38.588Z,1015.73
2018-02-19T03:49:38.588Z,1015.67
2018-02-19T03:50:40.682Z,1015.69
2018-02-19T03:51:38.599Z,1015.66
2018-02-19T03:52:38.603Z,1015.67
2018-02-19T03:53:38.595Z,1015.66
2018-02-19T03:54:38.613Z,1015.65
2018-02-19T03:55:38.624Z,1015.68
2018-02-19T03:56:38.640Z,1015.65
2018-02-19T03:57:38.596Z,1015.54
2018-02-19T03:58:38.598Z,1015.56
2018-02-19T03:59:38.593Z,1015.52
2018-02-19T04:00:39.600Z,1015.53
2018-02-19T04:01:38.615Z,1015.49
2018-02-19T04:02:38.615Z,1015.48
2018-02-19T04:03:38.599Z,1015.43
2018-02-19T04:04:38.603Z,1015.40
2018-02-19T04:05:38.604Z,1015.49
2018-02-19T04:06:38.610Z,1015.42
2018-02-19T04:07:38.608Z,1015.43
2018-02-19T04:08:38.602Z,1015.44
2018-02-19T04:09:38.602Z,1015.43
2018-02-19T04:10:38.616Z,1015.40
2018-02-19T04:11:38.611Z,1015.39
2018-02-19T04:12:38.616Z,1015.38
2018-02-19T04:13:38.607Z,1015.38
2018-02-19T04:14:38.634Z,1015.33
2018-02-19T04:15:38.613Z,1015.35
2018-02-19T04:16:38.621Z,1015.29
2018-02-19T04:17:38.620Z,1015.31
2018-02-19T04:18:38.614Z,1015.31
2018-02-19T04:19:38.625Z,1015.34
2018-02-19T04:20:38.627Z,1015.29
2018-02-19T04:21:38.635Z,1015.30
2018-02-19T04:22:38.614Z,1015.25
2018-02-19T04:23:38.623Z,1015.31
2018-02-19T04:24:38.642Z,1015.26
2018-02-19T04:25:38.622Z,1015.28
2018-02-19T04:26:38.620Z,1015.26
2018-02-19T04:27:38.622Z,1015.27
2018-02-19T04:28:38.632Z,1015.19
2018-02-19T04:29:38.620Z,1015.21
2018-02-19T04:30:38.627Z,1015.19
2018-02-19T04:31:38.621Z,1015.12
2018-02-19T04:32:38.625Z,1015.11
2018-02-19T04:33:38.628Z,1015.14
2018-02-19T04:34:38.626Z,1015.15
2018-02-19T04:35:38.625Z,1015.12
2018-02-19T04:36:38.634Z,1015.14
2018-02-19T04:37:38.636Z,1015.09
2018-02-19T04:38:38.643Z,1015.08
2018-02-19T04:39:38.629Z,1015.06
2018-02-19T04:40:38.633Z,1015.04
2018-02-19T04:41:38.629Z,1015.06
2018-02-19T04:42:38.636Z,1015.03
2018-02-19T04:43:38.638Z,1015.13
2018-02-19T04:44:38.635Z,1015.14
2018-02-19T04:45:38.636Z,1015.12
2018-02-19T04:46:38.654Z,1015.12
2018-02-19T04:47:38.639Z,1015.04
2018-02-19T04:48:38.637Z,1015.10
2018-02-19T04:49:38.691Z,1015.03
2018-02-19T04:50:38.640Z,1015.06
2018-02-19T04:51:38.632Z,1015.07
2018-02-19T04:52:38.635Z,1015.03
2018-02-19T04:53:38.641Z,1015.02
2018-02-19T04:54:38.650Z,1015.08
2018-02-19T04:55:38.652Z,1015.09
2018-02-19T04:56:38.650Z,1015.03
2018-02-19T04:57:38.640Z,1015.03
2018-02-19T04:58:38.662Z,1015.07
2018-02-19T04:59:38.641Z,1015.03
2018-02-19T05:00:38.658Z,1015.05
2018-02-19T05:01:38.647Z,1014.97
2018-02-19T05:02:40.649Z,1014.94
2018-02-19T05:03:38.653Z,1014.95
2018-02-19T05:04:38.654Z,1015.01
2018-02-19T05:05:38.652Z,1014.96
2018-02-19T05:06:38.652Z,1015.05
2018-02-19T05:07:38.650Z,1015.02
2018-02-19T05:08:38.658Z,1015.02
2018-02-19T05:09:38.648Z,1015.05
2018-02-19T05:10:38.654Z,1015.07
2018-02-19T05:11:38.658Z,1015.05
2018-02-19T05:12:38.656Z,1015.04
2018-02-19T05:13:38.653Z,1015.03
2018-02-19T05:14:38.657Z,1015.02
2018-02-19T05:15:38.653Z,1014.98
2018-02-19T05:16:38.669Z,1015.01
2018-02-19T05:17:38.658Z,1014.99
2018-02-19T05:18:38.660Z,1015.00
2018-02-19T05:19:38.654Z,1015.02
2018-02-19T05:20:38.666Z,1015.04
2018-02-19T05:21:38.664Z,1015.03
2018-02-19T05:22:38.657Z,1015.01
2018-02-19T05:23:38.664Z,1015.04
2018-02-19T05:24:38.661Z,1015.04
2018-02-19T05:25:38.667Z,1015.03
2018-02-19T05:26:38.665Z,1015.01
2018-02-19T05:27:38.666Z,1015.07
2018-02-19T05:28:39.676Z,1015.04
2018-02-19T05:29:38.697Z,1015.06
2018-02-19T05:30:38.670Z,1015.06
2018-02-19T05:31:38.670Z,1015.06
2018-02-19T05:32:38.676Z,1015.07
2018-02-19T05:33:38.667Z,1015.11
2018-02-19T05:34:38.678Z,1015.11
2018-02-19T05:35:38.669Z,1015.10
2018-02-19T05:36:38.673Z,1015.12
2018-02-19T05:37:38.670Z,1015.14
2018-02-19T05:38:38.684Z,1015.15
2018-02-19T05:39:38.672Z,1015.15
2018-02-19T05:40:38.670Z,1015.18
2018-02-19T05:41:38.668Z,1015.15
2018-02-19T05:42:38.678Z,1015.18
2018-02-19T05:43:38.673Z,1015.11
2018-02-19T05:44:38.736Z,1015.12
2018-02-19T05:45:38.677Z,1015.10
2018-02-19T05:46:38.675Z,1015.04
2018-02-19T05:47:38.690Z,1015.08
2018-02-19T05:48:38.678Z,1015.07
2018-02-19T05:49:38.693Z,1015.04
2018-02-19T05:50:38.682Z,1015.05
2018-02-19T05:51:38.698Z,1015.04
2018-02-19T05:52:38.680Z,1015.06
2018-02-19T05:53:38.746Z,1015.02
2018-02-19T05:54:38.696Z,1015.00
2018-02-19T05:55:38.680Z,1015.08
2018-02-19T05:56:38.688Z,1015.06
2018-02-19T05:57:38.676Z,1015.10
2018-02-19T05:58:40.686Z,1015.12
2018-02-19T05:59:38.760Z,1015.14
2018-02-19T06:00:38.700Z,1015.17
2018-02-19T06:01:38.683Z,1015.16
2018-02-19T06:02:38.694Z,1015.16
2018-02-19T06:03:38.692Z,1015.16
2018-02-19T06:04:38.689Z,1015.13
2018-02-19T06:05:38.685Z,1015.10
2018-02-19T06:06:38.695Z,1015.07
2018-02-19T06:07:38.695Z,1015.06
2018-02-19T06:08:38.702Z,1015.02
2018-02-19T06:09:38.693Z,1015.04
2018-02-19T06:10:38.693Z,1015.07
2018-02-19T06:11:38.691Z,1015.03
2018-02-19T06:12:39.703Z,1015.03
2018-02-19T06:13:38.687Z,1015.05
2018-02-19T06:14:38.712Z,1015.07
2018-02-19T06:15:38.696Z,1015.07
2018-02-19T06:16:38.704Z,1015.04
2018-02-19T06:17:38.695Z,1015.09
2018-02-19T06:18:40.714Z,1015.07
2018-02-19T06:19:38.697Z,1015.07
2018-02-19T06:20:38.703Z,1015.06
2018-02-19T06:21:38.697Z,1015.08
2018-02-19T06:22:39.769Z,1015.11
2018-02-19T06:23:38.702Z,1015.13
2018-02-19T06:24:38.763Z,1015.13
2018-02-19T06:25:38.699Z,1015.17
2018-02-19T06:26:38.776Z,1015.14
2018-02-19T06:27:38.697Z,1015.22
2018-02-19T06:28:38.782Z,1015.21
2018-02-19T06:29:38.705Z,1015.21
2018-02-19T06:30:39.721Z,1015.19
2018-02-19T06:31:38.700Z,1015.19
2018-02-19T06:32:38.836Z,1015.22
2018-02-19T06:33:38.712Z,1015.17
2018-02-19T06:34:38.719Z,1015.17
2018-02-19T06:35:38.701Z,1015.17
2018-02-19T06:36:38.750Z,1015.11
2018-02-19T06:37:38.710Z,1015.13
2018-02-19T06:38:38.764Z,1015.15
2018-02-19T06:39:38.858Z,1015.14
2018-02-19T06:40:39.800Z,1015.17
2018-02-19T06:41:38.725Z,1015.15
2018-02-19T06:42:39.069Z,1015.16
2018-02-19T06:43:38.707Z,1015.17
2018-02-19T06:44:38.793Z,1015.17
2018-02-19T06:45:38.708Z,1015.21
2018-02-19T06:46:38.822Z,1015.12
2018-02-19T06:47:38.705Z,1015.17
2018-02-19T06:48:38.815Z,1015.09
2018-02-19T06:49:38.708Z,1015.13
2018-02-19T06:50:38.726Z,1015.10
2018-02-19T06:51:38.711Z,1015.12
2018-02-19T06:52:38.738Z,1015.12
2018-02-19T06:53:38.715Z,1015.09
2018-02-19T06:54:38.813Z,1015.15
2018-02-19T06:55:38.728Z,1015.14
2018-02-19T06:56:38.817Z,1015.12
2018-02-19T06:57:38.717Z,1015.15
2018-02-19T06:58:38.858Z,1015.14
2018-02-19T06:59:38.716Z,1015.15
2018-02-19T07:00:38.740Z,1015.17
2018-02-19T07:01:38.717Z,1015.21
2018-02-19T07:02:38.752Z,1015.19
2018-02-19T07:03:38.720Z,1015.18
2018-02-19T07:04:38.767Z,1015.20
2018-02-19T07:05:38.731Z,1015.16
2018-02-19T07:06:38.777Z,1015.14
2018-02-19T07:07:38.737Z,1015.12
2018-02-19T07:08:38.789Z,1015.13
2018-02-19T07:09:38.718Z,1015.08
2018-02-19T07:10:38.825Z,1015.09
2018-02-19T07:11:38.724Z,1015.08
2018-02-19T07:12:38.832Z,1015.04
2018-02-19T07:13:38.722Z,1015.05
2018-02-19T07:14:38.851Z,1014.99
2018-02-19T07:15:38.724Z,1014.94
2018-02-19T07:16:38.752Z,1014.98
2018-02-19T07:17:38.722Z,1014.90
2018-02-19T07:18:38.783Z,1014.94
2018-02-19T07:19:38.761Z,1014.96
2018-02-19T07:20:38.840Z,1014.94
2018-02-19T07:21:38.761Z,1015.00
2018-02-19T07:22:38.796Z,1014.92
2018-02-19T07:23:38.726Z,1014.92
2018-02-19T07:24:38.815Z,1014.88
2018-02-19T07:25:38.741Z,1014.91
2018-02-19T07:26:38.828Z,1014.86
2018-02-19T07:27:38.742Z,1014.86
2018-02-19T07:28:38.843Z,1014.86
2018-02-19T07:29:38.733Z,1014.81
2018-02-19T07:30:38.755Z,1014.80
2018-02-19T07:31:38.729Z,1014.84
2018-02-19T07:32:38.814Z,1014.82
2018-02-19T07:33:38.731Z,1014.76
2018-02-19T07:34:38.778Z,1014.74
2018-02-19T07:35:38.734Z,1014.78
2018-02-19T07:36:38.791Z,1014.78
2018-02-19T07:37:38.727Z,1014.83
2018-02-19T07:38:38.806Z,1014.79
2018-02-19T07:39:38.730Z,1014.76
2018-02-19T07:40:38.817Z,1014.79
2018-02-19T07:41:38.797Z,1014.78
2018-02-19T07:42:38.834Z,1014.86
2018-02-19T07:43:38.773Z,1014.83
2018-02-19T07:44:38.847Z,1014.82
2018-02-19T07:45:38.776Z,1014.90
2018-02-19T07:46:38.755Z,1014.90
2018-02-19T07:47:38.735Z,1014.89
2018-02-19T07:48:38.772Z,1014.91
2018-02-19T07:49:38.739Z,1014.89
2018-02-19T07:50:38.782Z,1014.90
2018-02-19T07:51:38.739Z,1014.92
2018-02-19T07:52:38.797Z,1014.94
2018-02-19T07:53:38.736Z,1014.96
2018-02-19T07:54:38.780Z,1014.98
2018-02-19T07:55:38.737Z,1014.97
2018-02-19T07:56:39.746Z,1015.00
2018-02-19T07:57:38.748Z,1015.00
2018-02-19T07:58:39.755Z,1015.02
2018-02-19T07:59:38.761Z,1014.99
2018-02-19T08:00:38.747Z,1014.99
2018-02-19T08:01:38.755Z,1015.05
2018-02-19T08:02:38.747Z,1014.98
2018-02-19T08:03:38.778Z,1014.95
2018-02-19T08:04:38.762Z,1014.91
2018-02-19T08:05:38.747Z,1014.91
2018-02-19T08:06:38.793Z,1014.92
2018-02-19T08:07:38.853Z,1014.90
2018-02-19T08:08:38.753Z,1014.92
2018-02-19T08:09:38.751Z,1014.92
2018-02-19T08:10:38.772Z,1014.89
2018-02-19T08:11:38.750Z,1014.87
2018-02-19T08:12:38.754Z,1014.90
2018-02-19T08:13:38.748Z,1014.89
2018-02-19T08:14:38.794Z,1014.95
2018-02-19T08:15:38.748Z,1014.90
2018-02-19T08:16:38.759Z,1014.87
2018-02-19T08:17:38.764Z,1014.85
2018-02-19T08:18:38.762Z,1014.80
2018-02-19T08:19:38.763Z,1014.88
2018-02-19T08:20:38.762Z,1014.81
2018-02-19T08:21:38.753Z,1014.85
2018-02-19T08:22:39.773Z,1014.82
2018-02-19T08:23:38.753Z,1014.84
2018-02-19T08:24:38.798Z,1014.83
2018-02-19T08:25:38.764Z,1014.81
2018-02-19T08:26:39.801Z,1014.83
2018-02-19T08:27:38.836Z,1014.83
2018-02-19T08:28:38.761Z,1014.81
2018-02-19T08:29:38.808Z,1014.77
2018-02-19T08:30:38.763Z,1014.73
2018-02-19T08:31:38.762Z,1014.73
2018-02-19T08:32:38.768Z,1014.72
2018-02-19T08:33:38.757Z,1014.71
2018-02-19T08:34:38.772Z,1014.67
2018-02-19T08:35:38.760Z,1014.64
2018-02-19T08:36:38.801Z,1014.65
2018-02-19T08:37:38.796Z,1014.66
2018-02-19T08:38:38.814Z,1014.60
2018-02-19T08:39:38.790Z,1014.60
2018-02-19T08:40:38.773Z,1014.59
2018-02-19T08:41:38.855Z,1014.59
2018-02-19T08:42:38.770Z,1014.55
2018-02-19T08:43:38.769Z,1014.57
2018-02-19T08:44:38.808Z,1014.48
2018-02-19T08:45:38.773Z,1014.57
2018-02-19T08:46:38.770Z,1014.57
2018-02-19T08:47:38.767Z,1014.60
2018-02-19T08:48:38.769Z,1014.62
2018-02-19T08:49:38.770Z,1014.59
2018-02-19T08:50:38.804Z,1014.55
2018-02-19T08:51:38.779Z,1014.57
2018-02-19T08:52:38.773Z,1014.57
2018-02-19T08:53:38.781Z,1014.62
2018-02-19T08:54:38.776Z,1014.57
2018-02-19T08:55:38.775Z,1014.59
2018-02-19T08:56:38.786Z,1014.54
2018-02-19T08:57:38.775Z,1014.57
2018-02-19T08:58:38.800Z,1014.56
2018-02-19T08:59:38.769Z,1014.54
2018-02-19T09:00:38.775Z,1014.49
2018-02-19T09:01:38.771Z,1014.53
2018-02-19T09:02:38.774Z,1014.53
2018-02-19T09:03:38.806Z,1014.52
2018-02-19T09:04:38.789Z,1014.55
2018-02-19T09:05:38.774Z,1014.53
2018-02-19T09:06:38.786Z,1014.55
2018-02-19T09:07:38.796Z,1014.61
2018-02-19T09:08:38.775Z,1014.56
2018-02-19T09:09:38.784Z,1014.51
2018-02-19T09:10:38.776Z,1014.53
2018-02-19T09:11:38.782Z,1014.50
2018-02-19T09:12:38.802Z,1014.57
2018-02-19T09:13:38.785Z,1014.57
2018-02-19T09:14:38.787Z,1014.56
2018-02-19T09:15:38.788Z,1014.57
2018-02-19T09:16:38.779Z,1014.56
2018-02-19T09:17:38.801Z,1014.57
2018-02-19T09:18:38.792Z,1014.60
2018-02-19T09:19:38.796Z,1014.58
2018-02-19T09:20:38.790Z,1014.63
2018-02-19T09:21:38.790Z,1014.64
2018-02-19T09:22:38.781Z,1014.66
2018-02-19T09:23:39.787Z,1014.62
2018-02-19T09:24:38.791Z,1014.62
2018-02-19T09:25:38.816Z,1014.61
2018-02-19T09:26:38.794Z,1014.68
2018-02-19T09:27:38.831Z,1014.61
2018-02-19T09:28:38.801Z,1014.58
2018-02-19T09:29:38.845Z,1014.65
2018-02-19T09:30:38.804Z,1014.65
2018-02-19T09:31:38.857Z,1014.68
2018-02-19T09:32:38.789Z,1014.67
2018-02-19T09:33:38.871Z,1014.62
2018-02-19T09:34:38.796Z,1014.55
2018-02-19T09:35:38.884Z,1014.55
2018-02-19T09:36:38.800Z,1014.52
2018-02-19T09:37:38.898Z,1014.58
2018-02-19T09:38:38.794Z,1014.50
2018-02-19T09:39:38.809Z,1014.54
2018-02-19T09:40:38.795Z,1014.61
2018-02-19T09:41:38.926Z,1014.57
2018-02-19T09:42:38.803Z,1014.54
2018-02-19T09:43:38.836Z,1014.53
2018-02-19T09:44:38.795Z,1014.55
2018-02-19T09:45:38.852Z,1014.58
2018-02-19T09:46:38.807Z,1014.52
2018-02-19T09:47:39.067Z,1014.55
2018-02-19T09:48:38.815Z,1014.51
2018-02-19T09:49:38.893Z,1014.50
2018-02-19T09:50:38.826Z,1014.49
2018-02-19T09:51:38.891Z,1014.45
2018-02-19T09:52:38.818Z,1014.49
2018-02-19T09:53:38.816Z,1014.50
2018-02-19T09:54:38.810Z,1014.50
2018-02-19T09:55:38.819Z,1014.45
2018-02-19T09:56:38.809Z,1014.49
2018-02-19T09:57:38.817Z,1014.45
2018-02-19T09:58:38.851Z,1014.46
2018-02-19T09:59:38.817Z,1014.48
2018-02-19T10:00:38.822Z,1014.47
2018-02-19T10:01:38.842Z,1014.44
2018-02-19T10:02:38.834Z,1014.44
2018-02-19T10:03:38.821Z,1014.44
2018-02-19T10:04:38.820Z,1014.44
2018-02-19T10:05:38.849Z,1014.42
2018-02-19T10:06:38.821Z,1014.44
2018-02-19T10:07:38.834Z,1014.36
2018-02-19T10:08:38.843Z,1014.32
2018-02-19T10:09:38.877Z,1014.33
2018-02-19T10:10:38.827Z,1014.33
2018-02-19T10:11:38.835Z,1014.34
2018-02-19T10:12:38.847Z,1014.33
2018-02-19T10:13:38.827Z,1014.34
2018-02-19T10:14:38.827Z,1014.32
2018-02-19T10:15:38.835Z,1014.36
2018-02-19T10:16:38.832Z,1014.35
2018-02-19T10:17:39.840Z,1014.39
2018-02-19T10:18:38.887Z,1014.38
2018-02-19T10:19:38.845Z,1014.43
2018-02-19T10:20:38.839Z,1014.41
2018-02-19T10:21:38.836Z,1014.44
2018-02-19T10:22:38.838Z,1014.42
2018-02-19T10:23:38.863Z,1014.42
2018-02-19T10:24:38.834Z,1014.41
2018-02-19T10:25:38.848Z,1014.42
2018-02-19T10:26:38.844Z,1014.38
2018-02-19T10:27:38.845Z,1014.39
2018-02-19T10:28:38.845Z,1014.36
2018-02-19T10:29:38.854Z,1014.34
2018-02-19T10:30:38.859Z,1014.35
2018-02-19T10:31:39.850Z,1014.35
2018-02-19T10:32:38.862Z,1014.32
2018-02-19T10:33:38.856Z,1014.30
2018-02-19T10:34:38.854Z,1014.38
2018-02-19T10:35:38.856Z,1014.32
2018-02-19T10:36:38.857Z,1014.30
2018-02-19T10:37:38.862Z,1014.40
2018-02-19T10:38:38.902Z,1014.36
2018-02-19T10:39:39.863Z,1014.35
2018-02-19T10:40:38.871Z,1014.31
2018-02-19T10:41:38.876Z,1014.41
2018-02-19T10:42:38.855Z,1014.37
2018-02-19T10:43:38.865Z,1014.34
2018-02-19T10:44:38.869Z,1014.37
2018-02-19T10:45:38.874Z,1014.38
2018-02-19T10:46:38.866Z,1014.34
2018-02-19T10:47:39.871Z,1014.36
2018-02-19T10:48:38.916Z,1014.28
2018-02-19T10:49:38.873Z,1014.26
2018-02-19T10:50:38.874Z,1014.26
2018-02-19T10:51:38.880Z,1014.25
2018-02-19T10:52:38.876Z,1014.26
2018-02-19T10:53:38.876Z,1014.27
2018-02-19T10:54:38.869Z,1014.23
2018-02-19T10:55:38.904Z,1014.25
2018-02-19T10:56:38.892Z,1014.24
2018-02-19T10:57:39.885Z,1014.26
2018-02-19T10:58:38.907Z,1014.22
2018-02-19T10:59:38.891Z,1014.23
2018-02-19T11:00:38.882Z,1014.18
2018-02-19T11:01:38.894Z,1014.13
2018-02-19T11:02:38.899Z,1014.09
2018-02-19T11:03:38.901Z,1014.16
2018-02-19T11:04:38.893Z,1014.08
2018-02-19T11:05:38.896Z,1014.09
2018-02-19T11:06:38.900Z,1014.12
2018-02-19T11:07:38.924Z,1014.12
2018-02-19T11:08:38.907Z,1014.16
2018-02-19T11:09:38.903Z,1014.09
2018-02-19T11:10:38.924Z,1014.05
2018-02-19T11:11:38.913Z,1014.05
2018-02-19T11:12:38.903Z,1014.07
2018-02-19T11:13:38.906Z,1014.15
2018-02-19T11:14:38.906Z,1014.14
2018-02-19T11:15:38.913Z,1014.12
2018-02-19T11:16:38.927Z,1014.10
2018-02-19T11:17:38.916Z,1014.11
2018-02-19T11:18:38.911Z,1014.08
2018-02-19T11:19:38.917Z,1014.04
2018-02-19T11:20:38.927Z,1014.03
2018-02-19T11:21:38.931Z,1014.06
2018-02-19T11:22:38.923Z,1014.04
2018-02-19T11:23:38.920Z,1014.10
2018-02-19T11:24:38.929Z,1014.04
2018-02-19T11:25:39.957Z,1014.13
2018-02-19T11:26:38.922Z,1014.03
2018-02-19T11:27:39.035Z,1014.02
2018-02-19T11:28:38.922Z,1014.04
2018-02-19T11:29:38.942Z,1014.04
2018-02-19T11:30:38.926Z,1014.07
2018-02-19T11:31:38.961Z,1014.03
2018-02-19T11:32:38.936Z,1014.00
2018-02-19T11:33:38.986Z,1013.98
2018-02-19T11:34:38.937Z,1013.99
2018-02-19T11:35:39.086Z,1013.97
2018-02-19T11:36:38.930Z,1014.02
2018-02-19T11:37:40.017Z,1013.98
2018-02-19T11:38:38.938Z,1013.92
2018-02-19T11:39:39.024Z,1013.89
2018-02-19T11:40:38.972Z,1013.90
2018-02-19T11:41:39.025Z,1013.92
2018-02-19T11:42:38.956Z,1013.85
2018-02-19T11:43:39.050Z,1013.89
2018-02-19T11:44:38.956Z,1013.87
2018-02-19T11:45:39.053Z,1013.86
2018-02-19T11:46:38.951Z,1013.90
2018-02-19T11:47:39.064Z,1013.86
2018-02-19T11:48:38.955Z,1013.88
2018-02-19T11:49:38.980Z,1013.83
2018-02-19T11:50:38.956Z,1013.81
2018-02-19T11:51:40.021Z,1013.81
2018-02-19T11:52:38.989Z,1013.85
2018-02-19T11:53:38.972Z,1013.83
2018-02-19T11:54:38.991Z,1013.85
2018-02-19T11:55:38.969Z,1013.76
2018-02-19T11:56:38.976Z,1013.71
2018-02-19T11:57:38.973Z,1013.72
2018-02-19T11:58:38.981Z,1013.76
2018-02-19T11:59:38.988Z,1013.73
2018-02-19T12:00:38.985Z,1013.74
2018-02-19T12:01:38.979Z,1013.69
2018-02-19T12:02:38.982Z,1013.72
2018-02-19T12:03:39.013Z,1013.70
2018-02-19T12:04:38.986Z,1013.70
2018-02-19T12:05:39.026Z,1013.62